Time;durP1;ratioP1;P1;durP2;ratioP2;P2;SDS_P1;SDS_P2;PMS_P1;PMS_P2;Temp;Humidity;BMP_temperature;BMP_pressure;BME280_temperature;BME280_humidity;BME280_pressure;Samples;Min_cycle;Max_cycle;Signal;HPM_P1;HPM_P2
2021/03/28 00:01:14;;;;;;;36.22;25.85;;;;;;;14.52;55.98;102467.03;5011465;28;20046;-62
2021/03/28 00:03:46;;;;;;;37.85;25.35;;;;;;;14.48;56.38;102467.25;5013619;28;20053;-62
2021/03/28 00:06:29;;;;;;;37.05;24.63;;;;;;;14.45;56.51;102470.00;5012599;28;20446;-62
2021/03/28 00:09:23;;;;;;;31.80;23.98;;;;;;;14.37;56.80;102468.59;4994149;28;20050;-62
2021/03/28 00:12:05;;;;;;;34.60;24.67;;;;;;;14.35;56.78;102469.56;4994225;28;20105;-62
2021/03/28 00:14:52;;;;;;;38.80;25.63;;;;;;;14.30;56.96;102472.41;4994095;28;20479;-62
2021/03/28 00:17:18;;;;;;;36.00;25.95;;;;;;;14.28;56.73;102474.25;4993889;28;20553;-62
2021/03/28 00:19:50;;;;;;;36.92;25.02;;;;;;;14.26;56.92;102473.47;4993889;28;20046;-61
2021/03/28 00:22:26;;;;;;;37.13;24.75;;;;;;;14.25;56.60;102476.19;4993908;28;20050;-61
2021/03/28 00:25:00;;;;;;;35.72;24.63;;;;;;;14.21;56.91;102480.75;5008800;28;20053;-61
2021/03/28 00:27:37;;;;;;;39.38;25.73;;;;;;;14.18;57.04;102481.75;5013594;28;20046;-62
2021/03/28 00:30:29;;;;;;;38.05;26.08;;;;;;;14.15;56.95;102489.78;5013550;28;20077;-62
2021/03/28 00:33:00;;;;;;;39.55;25.10;;;;;;;14.14;56.97;102482.78;5006993;28;20456;-61
2021/03/28 00:35:47;;;;;;;37.83;24.55;;;;;;;14.12;56.90;102483.78;5013276;28;20046;-62
2021/03/28 00:38:18;;;;;;;34.15;25.48;;;;;;;14.11;56.83;102488.22;5013298;28;20096;-62
2021/03/28 00:41:06;;;;;;;36.55;24.80;;;;;;;14.11;56.87;102490.84;5011086;28;20046;-62
2021/03/28 00:43:58;;;;;;;33.95;24.48;;;;;;;14.08;56.79;102493.63;5013174;28;20104;-62
2021/03/28 00:46:44;;;;;;;34.35;24.92;;;;;;;14.05;56.82;102493.75;5013122;28;20054;-62
2021/03/28 00:49:21;;;;;;;39.65;26.35;;;;;;;14.03;56.54;102496.47;5012357;28;20050;-61
2021/03/28 00:51:53;;;;;;;36.00;26.13;;;;;;;14.01;56.71;102492.19;5012932;28;20457;-62
2021/03/28 00:54:34;;;;;;;34.13;25.65;;;;;;;13.99;56.57;102486.09;5013098;28;20045;-62
2021/03/28 00:57:03;;;;;;;30.38;24.23;;;;;;;13.95;56.36;102488.00;5012181;28;20092;-62
2021/03/28 00:59:43;;;;;;;35.63;23.98;;;;;;;13.91;55.85;102482.94;5012899;28;20434;-62
2021/03/28 01:02:10;;;;;;;33.85;25.00;;;;;;;13.87;55.68;102484.84;5012830;28;20054;-61
2021/03/28 01:05:01;;;;;;;33.45;25.15;;;;;;;13.84;55.87;102477.94;5012737;28;20069;-61
2021/03/28 01:07:33;;;;;;;35.97;25.30;;;;;;;13.84;55.94;102472.66;5012727;28;20050;-62
2021/03/28 01:10:33;;;;;;;33.55;24.17;;;;;;;13.83;56.07;102484.13;5012772;28;20088;-62
2021/03/28 01:13:36;;;;;;;34.80;24.38;;;;;;;13.82;55.95;102487.69;5010982;28;20092;-62
2021/03/28 01:16:15;;;;;;;31.50;22.88;;;;;;;13.79;55.71;102479.03;4992957;28;20093;-62
2021/03/28 01:19:19;;;;;;;30.80;23.75;;;;;;;13.76;55.65;102479.16;4992390;28;20057;-62
2021/03/28 01:22:06;;;;;;;37.30;24.83;;;;;;;13.74;55.52;102478.38;4992895;28;20054;-61
2021/03/28 01:24:38;;;;;;;34.90;25.17;;;;;;;13.69;55.43;102481.22;4992986;28;20043;-62
2021/03/28 01:27:30;;;;;;;30.08;22.52;;;;;;;13.63;55.06;102484.94;4992905;28;20053;-61
2021/03/28 01:29:58;;;;;;;29.17;22.27;;;;;;;13.54;54.64;102487.97;4993137;28;20050;-62
2021/03/28 01:32:24;;;;;;;32.42;22.75;;;;;;;13.50;54.57;102483.75;5003659;28;20053;-62
2021/03/28 01:35:05;;;;;;;35.85;23.65;;;;;;;13.46;54.56;102483.03;5012533;28;20046;-63
2021/03/28 01:38:25;;;;;;;33.88;23.55;;;;;;;13.43;54.49;102492.84;5012405;28;20487;-62
2021/03/28 01:40:58;;;;;;;31.27;22.02;;;;;;;13.41;54.55;102497.31;4952068;29;20114;-62
2021/03/28 01:43:36;;;;;;;36.60;23.33;;;;;;;13.39;54.60;102495.59;4951852;28;20095;-62
2021/03/28 01:46:09;;;;;;;32.03;24.25;;;;;;;13.37;54.62;102499.22;4988427;28;20061;-62
2021/03/28 01:48:35;;;;;;;34.10;23.38;;;;;;;13.36;54.76;102497.47;5011560;28;20120;-62
2021/03/28 01:51:49;;;;;;;33.08;24.08;;;;;;;13.34;54.91;102504.56;5012524;28;20388;-61
2021/03/28 01:54:33;;;;;;;36.45;24.10;;;;;;;13.35;55.03;102503.66;5007192;28;20462;-62
2021/03/28 01:57:19;;;;;;;32.33;23.23;;;;;;;13.34;55.07;102502.78;5012282;28;20097;-61
2021/03/28 01:59:53;;;;;;;31.98;24.42;;;;;;;13.35;55.34;102508.94;5012156;28;20104;-62
2021/03/28 02:02:49;;;;;;;33.65;24.83;;;;;;;13.35;55.55;102508.94;5012279;28;20049;-62
2021/03/28 02:05:48;;;;;;;34.65;24.67;;;;;;;13.34;55.67;102509.84;5011105;28;20050;-62
2021/03/28 02:08:35;;;;;;;32.58;24.27;;;;;;;13.32;55.71;102507.28;5012164;28;20049;-61
2021/03/28 02:11:10;;;;;;;38.92;25.67;;;;;;;13.30;55.91;102506.47;5012282;28;20540;-61
2021/03/28 02:14:07;;;;;;;31.70;23.43;;;;;;;13.30;55.99;102514.38;5012197;28;20100;-61
2021/03/28 02:16:51;;;;;;;32.95;25.65;;;;;;;13.27;55.88;102511.00;5012242;28;20297;-62
2021/03/28 02:19:22;;;;;;;32.72;23.75;;;;;;;13.23;55.71;102508.50;5012333;28;20052;-61
2021/03/28 02:22:21;;;;;;;39.78;24.15;;;;;;;13.20;55.52;102526.22;5011422;28;20046;-62
2021/03/28 02:25:04;;;;;;;34.33;23.98;;;;;;;13.17;55.59;102516.66;4992475;28;20070;-62
2021/03/28 02:27:36;;;;;;;34.08;24.02;;;;;;;13.16;55.67;102522.84;4992375;28;20442;-62
2021/03/28 02:30:31;;;;;;;34.95;24.17;;;;;;;13.14;55.73;102518.53;4994384;28;20479;-62
2021/03/28 02:33:20;;;;;;;33.33;23.52;;;;;;;13.09;55.41;102523.13;4995999;28;20046;-61
2021/03/28 02:35:52;;;;;;;31.58;23.50;;;;;;;13.04;55.38;102526.81;4995787;28;20042;-62
2021/03/28 02:38:32;;;;;;;31.73;23.20;;;;;;;13.03;55.49;102524.25;5002685;28;20046;-62
2021/03/28 02:41:15;;;;;;;30.60;23.00;;;;;;;13.01;55.47;102529.53;5015470;28;20501;-62
2021/03/28 02:44:20;;;;;;;31.20;23.38;;;;;;;13.00;55.56;102529.63;5015310;28;20053;-61
2021/03/28 02:47:16;;;;;;;29.48;22.45;;;;;;;12.98;55.48;102534.94;5015199;28;20050;-61
2021/03/28 02:50:10;;;;;;;34.55;22.95;;;;;;;12.97;55.48;102535.00;5015392;28;20096;-62
2021/03/28 02:53:13;;;;;;;30.45;23.13;;;;;;;12.95;55.43;102536.84;5014548;28;20050;-62
2021/03/28 02:55:48;;;;;;;32.95;23.10;;;;;;;12.92;55.33;102532.53;5011949;28;20499;-61
2021/03/28 02:58:19;;;;;;;32.78;22.83;;;;;;;12.91;55.47;102536.09;5015225;28;20120;-61
2021/03/28 03:01:10;;;;;;;32.10;23.67;;;;;;;12.89;55.27;102541.41;5014974;28;20085;-62
2021/03/28 03:04:01;;;;;;;30.73;23.25;;;;;;;12.85;55.11;102539.81;5010398;28;20058;-64
2021/03/28 03:06:49;;;;;;;30.45;22.13;;;;;;;12.82;55.06;102545.19;5011466;28;20479;-62
2021/03/28 03:09:50;;;;;;;38.78;24.15;;;;;;;12.79;55.01;102553.22;5011797;28;20096;-62
2021/03/28 03:12:35;;;;;;;30.15;23.27;;;;;;;12.76;55.13;102553.34;5007543;28;20050;-62
2021/03/28 03:15:27;;;;;;;32.90;23.27;;;;;;;12.73;55.18;102556.97;5011675;28;20046;-62
2021/03/28 03:18:25;;;;;;;33.90;23.60;;;;;;;12.73;55.34;102556.06;5008670;28;20103;-62
2021/03/28 03:21:24;;;;;;;32.58;24.20;;;;;;;12.72;55.56;102549.09;5011904;28;20061;-63
2021/03/28 03:24:15;;;;;;;35.72;24.35;;;;;;;12.71;55.74;102556.16;5011394;28;20116;-62
2021/03/28 03:27:02;;;;;;;37.25;23.63;;;;;;;12.71;56.09;102560.56;5010427;28;20072;-62
2021/03/28 03:29:59;;;;;;;32.05;23.58;;;;;;;12.67;55.94;102567.72;5010027;28;20112;-62
2021/03/28 03:33:02;;;;;;;31.67;23.48;;;;;;;12.63;55.79;102570.50;5011010;28;20050;-62
2021/03/28 03:35:41;;;;;;;35.05;25.20;;;;;;;12.57;55.85;102567.16;5010997;28;20549;-62
2021/03/28 03:38:37;;;;;;;30.55;24.00;;;;;;;12.54;56.19;102575.19;5011054;28;20057;-64
2021/03/28 03:41:27;;;;;;;34.75;23.83;;;;;;;12.51;56.11;102583.19;4979586;28;20046;-62
2021/03/28 03:44:19;;;;;;;34.10;24.17;;;;;;;12.48;56.30;102575.41;5010855;28;20057;-62
2021/03/28 03:47:05;;;;;;;34.75;25.55;;;;;;;12.46;56.56;102579.00;5008972;28;20069;-62
2021/03/28 03:49:50;;;;;;;32.42;23.67;;;;;;;12.45;56.83;102582.56;5011168;28;20050;-62
2021/03/28 03:52:42;;;;;;;35.38;24.02;;;;;;;12.45;57.01;102585.19;5010749;28;20103;-62
2021/03/28 03:55:25;;;;;;;32.33;23.40;;;;;;;12.44;57.00;102580.81;5026006;28;20060;-62
2021/03/28 03:57:55;;;;;;;36.25;24.83;;;;;;;12.43;57.15;102585.25;5010051;28;20053;-62
2021/03/28 04:00:41;;;;;;;37.28;24.92;;;;;;;12.41;57.25;102587.91;5010496;28;20037;-63
2021/03/28 04:03:24;;;;;;;32.85;24.05;;;;;;;12.40;57.20;102595.88;5009084;28;20049;-62
2021/03/28 04:06:09;;;;;;;36.53;24.38;;;;;;;12.38;57.10;102600.34;5010824;28;20046;-62
2021/03/28 04:09:01;;;;;;;31.23;23.30;;;;;;;12.36;57.11;102589.84;5010501;28;20100;-62
2021/03/28 04:11:27;;;;;;;31.67;22.88;;;;;;;12.35;57.21;102598.66;5010411;28;20049;-62
2021/03/28 04:14:12;;;;;;;35.35;24.00;;;;;;;12.33;57.26;102597.84;5010544;28;20046;-62
2021/03/28 04:16:53;;;;;;;32.17;23.88;;;;;;;12.32;57.27;102600.56;5010302;28;20049;-62
2021/03/28 04:19:39;;;;;;;34.55;24.80;;;;;;;12.33;57.52;102602.25;5009482;28;20046;-62
2021/03/28 04:22:37;;;;;;;35.17;25.17;;;;;;;12.30;57.90;102608.47;4990787;28;20085;-62
2021/03/28 04:25:19;;;;;;;35.53;24.98;;;;;;;12.29;57.95;102614.69;4971057;28;20097;-62
2021/03/28 04:27:58;;;;;;;34.75;25.20;;;;;;;12.28;57.86;102617.34;4990456;28;20046;-63
2021/03/28 04:30:32;;;;;;;35.88;25.10;;;;;;;12.25;57.82;102616.56;4990402;28;20047;-62
2021/03/28 04:33:17;;;;;;;36.55;24.30;;;;;;;12.24;57.57;102624.50;4990529;28;20053;-62
2021/03/28 04:36:11;;;;;;;34.97;25.13;;;;;;;12.21;57.47;102620.19;4990454;28;20054;-61
2021/03/28 04:39:41;;;;;;;34.30;22.90;;;;;;;12.21;57.62;102635.13;5007678;28;20053;-62
2021/03/28 04:42:16;;;;;;;32.78;24.15;;;;;;;12.19;57.24;102643.06;4949435;29;20496;-62
2021/03/28 04:45:00;;;;;;;31.70;23.25;;;;;;;12.14;57.23;102638.84;4949536;28;20047;-62
2021/03/28 04:47:32;;;;;;;36.10;23.33;;;;;;;12.13;57.11;102645.91;4999460;28;20410;-62
2021/03/28 04:50:36;;;;;;;33.75;23.35;;;;;;;12.12;57.13;102649.44;5009887;28;20049;-63
2021/03/28 04:53:37;;;;;;;31.50;22.25;;;;;;;12.13;57.49;102651.16;5009824;28;20046;-62
2021/03/28 04:56:37;;;;;;;33.42;23.08;;;;;;;12.15;57.54;102653.75;4949099;28;20047;-61
2021/03/28 04:59:23;;;;;;;37.95;26.40;;;;;;;12.16;57.80;102666.00;5009877;28;20049;-62
2021/03/28 05:02:16;;;;;;;37.67;25.23;;;;;;;12.15;58.11;102670.41;5009546;28;20050;-61
2021/03/28 05:05:09;;;;;;;36.33;25.27;;;;;;;12.15;58.34;102670.41;5008358;28;20058;-62
2021/03/28 05:08:03;;;;;;;40.75;25.17;;;;;;;12.15;58.62;102675.66;5009690;28;20046;-61
2021/03/28 05:10:40;;;;;;;40.70;26.33;;;;;;;12.15;59.08;102678.31;5009559;28;20414;-62
2021/03/28 05:13:24;;;;;;;35.53;26.05;;;;;;;12.13;59.86;102680.09;5009560;28;20057;-61
2021/03/28 05:16:28;;;;;;;43.67;29.13;;;;;;;12.11;60.33;102687.19;5009632;28;20053;-62
2021/03/28 05:19:39;;;;;;;41.22;27.65;;;;;;;12.12;60.92;102695.97;5008762;28;20061;-62
2021/03/28 05:22:30;;;;;;;37.05;27.30;;;;;;;12.14;61.07;102694.13;4998525;28;20103;-62
2021/03/28 05:25:13;;;;;;;41.13;28.23;;;;;;;12.16;61.38;102703.69;5009499;28;20049;-62
2021/03/28 05:27:48;;;;;;;40.95;29.25;;;;;;;12.19;61.66;102700.97;5009510;28;20046;-62
2021/03/28 05:30:33;;;;;;;38.58;28.88;;;;;;;12.24;61.79;102704.31;5009662;28;20112;-62
2021/03/28 05:33:36;;;;;;;41.03;28.15;;;;;;;12.29;62.05;102700.66;5009308;28;20045;-62
2021/03/28 05:36:44;;;;;;;39.97;27.10;;;;;;;12.29;62.28;102703.31;5009488;28;20104;-62
2021/03/28 05:39:50;;;;;;;38.13;27.80;;;;;;;12.29;62.28;102714.72;5008320;28;20050;-62
2021/03/28 05:42:38;;;;;;;42.78;29.48;;;;;;;12.29;62.45;102709.44;4948742;29;20056;-62
2021/03/28 05:45:32;;;;;;;41.05;28.35;;;;;;;12.29;62.49;102717.34;4987801;28;20050;-62
2021/03/28 05:48:19;;;;;;;40.22;26.67;;;;;;;12.30;62.80;102723.47;4989683;28;20396;-62
2021/03/28 05:50:58;;;;;;;41.00;27.45;;;;;;;12.32;62.97;102726.91;4989604;28;20414;-62
2021/03/28 05:53:46;;;;;;;42.88;28.25;;;;;;;12.32;63.20;102717.22;4989286;28;20049;-62
2021/03/28 05:57:09;;;;;;;40.72;28.65;;;;;;;12.34;63.46;102718.06;4991001;28;20096;-62
2021/03/28 06:00:11;;;;;;;44.08;28.83;;;;;;;12.38;63.81;102734.63;4989160;28;20046;-62
2021/03/28 06:02:43;;;;;;;39.40;29.08;;;;;;;12.37;63.89;102736.38;4929454;29;20048;-62
2021/03/28 06:05:40;;;;;;;40.00;28.42;;;;;;;12.39;64.23;102731.94;4981661;28;20058;-62
2021/03/28 06:08:25;;;;;;;;;;;;;;;12.43;64.41;102734.44;4993778;28;20089;-62
2021/03/28 06:11:17;;;;;;;40.95;27.38;;;;;;;12.45;64.16;102744.03;4993011;28;19925;-63
2021/03/28 06:14:18;;;;;;;45.78;30.77;;;;;;;12.47;64.51;102746.59;4993324;28;20061;-62
2021/03/28 06:17:02;;;;;;;40.95;29.63;;;;;;;12.52;64.70;102739.41;4979456;28;20072;-62
2021/03/28 06:19:40;;;;;;;41.53;30.50;;;;;;;12.55;64.85;102742.81;5012683;28;20057;-62
2021/03/28 06:22:18;;;;;;;44.80;29.67;;;;;;;12.57;65.05;102748.03;5012423;28;20042;-62
2021/03/28 06:25:21;;;;;;;39.58;29.92;;;;;;;12.61;65.13;102759.31;5012400;28;20058;-62
2021/03/28 06:28:25;;;;;;;43.88;28.73;;;;;;;12.62;65.17;102759.28;5012253;28;20065;-62
2021/03/28 06:31:16;;;;;;;46.45;28.80;;;;;;;12.66;65.49;102754.75;5012385;28;20461;-62
2021/03/28 06:34:10;;;;;;;49.72;30.30;;;;;;;12.69;65.52;102752.88;5009261;28;20510;-62
2021/03/28 06:36:54;;;;;;;45.42;30.40;;;;;;;12.73;65.55;102757.16;5012124;28;20414;-62
2021/03/28 06:39:26;;;;;;;49.95;30.85;;;;;;;12.77;65.79;102760.53;5012315;28;20556;-61
2021/03/28 06:42:26;;;;;;;42.22;30.25;;;;;;;12.82;65.64;102763.88;5012168;28;20049;-61
2021/03/28 06:44:58;;;;;;;45.00;31.02;;;;;;;12.86;65.73;102759.38;5012115;28;20048;-62
2021/03/28 06:48:02;;;;;;;43.33;30.00;;;;;;;12.90;65.68;102758.38;5012046;28;20085;-63
2021/03/28 06:50:58;;;;;;;43.67;29.90;;;;;;;12.93;65.76;102758.25;4980340;28;20093;-61
2021/03/28 06:54:08;;;;;;;43.33;29.65;;;;;;;12.98;65.94;102761.59;5011955;28;20073;-61
2021/03/28 06:57:20;;;;;;;44.42;30.27;;;;;;;13.00;65.81;102766.78;5011768;28;20108;-62
2021/03/28 07:00:01;;;;;;;46.38;30.73;;;;;;;13.04;65.85;102768.44;5010532;28;20058;-62
2021/03/28 07:03:05;;;;;;;48.60;30.75;;;;;;;13.11;65.79;102769.06;5011410;28;20100;-62
2021/03/28 07:05:47;;;;;;;40.30;29.33;;;;;;;13.18;65.81;102771.44;5011576;28;20054;-62
2021/03/28 07:08:48;;;;;;;45.38;31.83;;;;;;;13.26;65.85;102776.44;5010852;28;20418;-61
2021/03/28 07:11:38;;;;;;;49.08;32.13;;;;;;;13.35;65.83;102776.09;5011720;28;20100;-61
2021/03/28 07:14:38;;;;;;;46.17;32.30;;;;;;;13.41;65.80;102774.19;5011404;28;20569;-61
2021/03/28 07:17:13;;;;;;;48.63;32.10;;;;;;;13.50;65.72;102769.47;5010530;28;20101;-62
2021/03/28 07:19:48;;;;;;;45.73;32.43;;;;;;;13.58;65.55;102769.19;5011600;28;20046;-62
2021/03/28 07:22:30;;;;;;;49.40;32.67;;;;;;;13.69;65.49;102774.06;5010446;28;20133;-64
2021/03/28 07:25:25;;;;;;;46.33;32.55;;;;;;;13.81;65.28;102778.00;5009446;28;20046;-64
2021/03/28 07:28:28;;;;;;;46.55;31.30;;;;;;;13.87;65.02;102791.84;5011401;28;20058;-64
2021/03/28 07:31:33;;;;;;;47.22;33.40;;;;;;;13.84;64.69;102786.69;5011322;28;20054;-64
2021/03/28 07:34:21;;;;;;;45.10;33.30;;;;;;;13.87;64.41;102794.47;5011356;28;20057;-64
2021/03/28 07:37:42;;;;;;;51.90;34.97;;;;;;;13.89;64.49;102794.44;5011123;28;20050;-64
2021/03/28 07:40:30;;;;;;;47.72;35.22;;;;;;;13.86;64.55;102798.06;4950271;28;20051;-64
2021/03/28 07:42:59;;;;;;;48.45;34.83;;;;;;;13.86;64.42;102799.81;5006766;28;20462;-64
2021/03/28 07:45:37;;;;;;;49.08;35.20;;;;;;;13.85;64.40;102796.31;5011140;28;20092;-65
2021/03/28 07:48:44;;;;;;;53.17;35.03;;;;;;;13.90;64.16;102808.47;5009782;28;20050;-64
2021/03/28 07:51:38;;;;;;;48.63;35.08;;;;;;;13.94;64.32;102810.06;5011212;28;20053;-64
2021/03/28 07:54:48;;;;;;;51.75;35.67;;;;;;;14.01;64.06;102815.06;5008870;28;20056;-64
2021/03/28 07:57:36;;;;;;;48.28;35.80;;;;;;;14.11;63.79;102798.91;5009583;28;20103;-64
2021/03/28 08:00:21;;;;;;;49.08;35.88;;;;;;;14.23;63.51;102802.81;5010281;28;20042;-64
2021/03/28 08:03:09;;;;;;;48.17;35.00;;;;;;;14.35;63.00;102805.84;5008868;28;20107;-64
2021/03/28 08:05:54;;;;;;;49.25;35.40;;;;;;;14.47;62.63;102807.13;5010417;28;20783;-63
2021/03/28 08:08:41;;;;;;;52.97;34.45;;;;;;;14.57;62.33;102799.69;5008375;28;20050;-62
2021/03/28 08:11:45;;;;;;;47.80;34.55;;;;;;;14.65;62.08;102797.66;5009409;28;20065;-64
2021/03/28 08:14:45;;;;;;;49.90;36.00;;;;;;;14.73;61.68;102805.25;4985978;28;20057;-64
2021/03/28 08:17:32;;;;;;;48.35;35.33;;;;;;;14.85;61.53;102807.41;5009569;28;20054;-64
2021/03/28 08:20:29;;;;;;;48.35;34.13;;;;;;;15.02;61.31;102803.19;5010428;28;20053;-64
2021/03/28 08:23:22;;;;;;;47.05;33.30;;;;;;;15.19;61.05;102795.38;5010175;28;20061;-64
2021/03/28 08:26:42;;;;;;;61.33;35.85;;;;;;;15.34;60.42;102793.84;5010343;28;20046;-66
2021/03/28 08:29:22;;;;;;;47.35;33.30;;;;;;;15.48;59.93;102793.25;4986477;28;20124;-65
2021/03/28 08:31:51;;;;;;;49.30;34.55;;;;;;;15.62;59.76;102787.31;5010307;28;20053;-64
2021/03/28 08:35:01;;;;;;;47.15;34.15;;;;;;;15.73;59.40;102793.91;5007435;28;20046;-66
2021/03/28 08:37:53;;;;;;;46.95;35.45;;;;;;;15.87;58.89;102798.63;4990123;28;20077;-65
2021/03/28 08:40:28;;;;;;;47.78;33.28;;;;;;;15.98;58.44;102797.16;5004094;28;20552;-65
2021/03/28 08:43:12;;;;;;;43.15;32.85;;;;;;;16.12;57.97;102800.97;5009712;28;20522;-63
2021/03/28 08:45:59;;;;;;;46.38;32.40;;;;;;;16.24;57.72;102804.81;5009826;28;20045;-63
2021/03/28 08:48:36;;;;;;;42.72;33.38;;;;;;;16.39;57.06;102805.88;5009719;28;20046;-63
2021/03/28 08:51:44;;;;;;;44.58;31.67;;;;;;;16.54;56.75;102801.63;5007422;28;20050;-61
2021/03/28 08:54:18;;;;;;;42.88;33.20;;;;;;;16.62;56.24;102805.63;4985993;28;20054;-76
2021/03/28 08:57:13;;;;;;;44.10;33.25;;;;;;;16.72;55.59;102802.50;5009510;28;20045;-61
2021/03/28 08:59:58;;;;;;;43.43;30.47;;;;;;;16.84;55.09;102801.91;5009787;28;20053;-62
2021/03/28 09:02:59;;;;;;;39.83;31.15;;;;;;;17.00;54.86;102802.03;5009169;28;20289;-63
2021/03/28 09:05:34;;;;;;;41.67;31.42;;;;;;;17.14;54.47;102818.09;5000167;28;20050;-62
2021/03/28 09:08:03;;;;;;;;;;;;;;;17.27;54.05;102813.00;5009083;28;20494;-67
2021/03/28 09:10:48;;;;;;;43.60;29.75;;;;;;;17.36;53.80;102805.50;5006581;28;19929;-66
2021/03/28 09:13:43;;;;;;;36.85;29.20;;;;;;;17.46;53.94;102812.91;5007721;28;20049;-66
2021/03/28 09:16:52;;;;;;;38.53;29.55;;;;;;;17.58;53.21;102816.69;5008297;28;20049;-66
2021/03/28 09:19:36;;;;;;;41.00;31.95;;;;;;;17.72;52.93;102813.28;5007699;28;20081;-66
2021/03/28 09:22:19;;;;;;;37.67;29.52;;;;;;;17.87;52.66;102805.44;5007024;28;20100;-67
2021/03/28 09:24:54;;;;;;;41.58;30.77;;;;;;;18.00;52.19;102809.16;5007667;28;20113;-63
2021/03/28 09:27:38;;;;;;;43.03;31.30;;;;;;;18.13;51.84;102819.13;5006976;28;20050;-64
2021/03/28 09:30:38;;;;;;;37.08;28.48;;;;;;;18.26;51.06;102825.47;5007779;28;20046;-66
2021/03/28 09:33:35;;;;;;;39.97;30.23;;;;;;;18.43;51.09;102821.84;5007846;28;20461;-66
2021/03/28 09:36:25;;;;;;;39.85;29.10;;;;;;;18.53;50.30;102824.84;5007279;28;20052;-65
2021/03/28 09:39:00;;;;;;;37.63;28.70;;;;;;;18.62;49.60;102821.66;5006807;28;20545;-65
2021/03/28 09:41:46;;;;;;;37.53;29.40;;;;;;;18.74;49.22;102823.59;5010452;28;20096;-62
2021/03/28 09:44:30;;;;;;;37.78;28.08;;;;;;;18.88;49.24;102813.94;5009807;28;20054;-63
2021/03/28 09:47:54;;;;;;;39.53;28.80;;;;;;;18.68;49.09;102825.78;5010844;28;20494;-63
2021/03/28 09:50:46;;;;;;;36.78;28.95;;;;;;;18.46;49.39;102819.00;4987120;28;20496;-64
2021/03/28 09:53:25;;;;;;;39.60;29.83;;;;;;;18.44;49.17;102811.13;4988773;28;20049;-63
2021/03/28 09:56:34;;;;;;;39.13;28.45;;;;;;;18.49;49.16;102808.22;5005476;28;20042;-63
2021/03/28 09:59:20;;;;;;;37.92;30.17;;;;;;;18.81;48.79;102809.97;5007139;28;20056;-61
2021/03/28 10:01:58;;;;;;;36.25;27.77;;;;;;;19.08;48.38;102811.00;5008927;28;20103;-63
2021/03/28 10:04:56;;;;;;;38.67;27.83;;;;;;;19.31;47.46;102797.25;5011371;28;20058;-64
2021/03/28 10:07:31;;;;;;;36.75;27.42;;;;;;;19.55;46.69;102806.41;5012198;28;20053;-64
2021/03/28 10:10:19;;;;;;;34.60;26.30;;;;;;;19.71;45.87;102794.78;5011295;28;20093;-61
2021/03/28 10:12:56;;;;;;;36.05;27.48;;;;;;;19.86;45.60;102788.50;5011661;28;20046;-64
2021/03/28 10:15:27;;;;;;;44.45;30.73;;;;;;;19.99;45.19;102793.91;5012060;28;20131;-64
2021/03/28 10:18:35;;;;;;;38.90;28.88;;;;;;;20.14;44.66;102788.56;5011359;28;20072;-66
2021/03/28 10:21:15;;;;;;;38.47;30.20;;;;;;;20.34;44.28;102788.09;5012141;28;20128;-61
2021/03/28 10:24:01;;;;;;;38.17;28.40;;;;;;;20.21;44.50;102790.72;5009786;28;20050;-62
2021/03/28 10:26:54;;;;;;;39.97;29.50;;;;;;;20.26;44.32;102793.06;5010496;28;20092;-62
2021/03/28 10:29:29;;;;;;;38.25;28.98;;;;;;;20.27;44.50;102784.13;4995329;28;20048;-62
2021/03/28 10:32:19;;;;;;;40.28;29.02;;;;;;;20.45;43.99;102779.38;5011298;28;20045;-64
2021/03/28 10:35:07;;;;;;;35.88;27.73;;;;;;;20.64;43.49;102778.16;5009399;28;20198;-62
2021/03/28 10:38:24;;;;;;;35.38;27.80;;;;;;;20.85;43.22;102782.06;5011195;28;20096;-64
2021/03/28 10:41:06;;;;;;;33.65;26.95;;;;;;;20.78;43.44;102777.25;5001537;28;20057;-69
2021/03/28 10:43:47;;;;;;;32.67;26.25;;;;;;;20.46;44.18;102780.25;5011471;28;20446;-75
2021/03/28 10:46:19;;;;;;;39.03;29.02;;;;;;;20.14;44.48;102769.91;5010805;28;20042;-62
2021/03/28 10:49:31;;;;;;;34.10;27.95;;;;;;;19.88;45.00;102775.97;5008964;28;20046;-67
2021/03/28 10:52:22;;;;;;;37.47;27.65;;;;;;;19.88;45.19;102777.75;5007423;28;20053;-65
2021/03/28 10:55:03;;;;;;;32.60;25.45;;;;;;;20.17;44.78;102772.34;5010922;28;20129;-66
2021/03/28 10:57:54;;;;;;;30.77;24.73;;;;;;;20.52;43.84;102762.03;5017357;28;20132;-64
2021/03/28 11:00:52;;;;;;;36.60;26.15;;;;;;;20.73;43.45;102758.03;5015367;28;20050;-63
2021/03/28 11:03:39;;;;;;;33.88;26.73;;;;;;;20.56;43.56;102762.69;5011632;28;20057;-62
2021/03/28 11:06:27;;;;;;;29.13;23.55;;;;;;;20.91;42.67;102758.59;4998039;28;20038;-64
2021/03/28 11:09:42;;;;;;;21.90;18.20;;;;;;;21.08;41.87;102760.09;4998251;28;20045;-64
2021/03/28 11:12:13;;;;;;;26.40;20.88;;;;;;;20.65;41.65;102762.03;4986114;28;20499;-64
2021/03/28 11:14:58;;;;;;;22.83;18.95;;;;;;;20.32;41.98;102760.69;5011087;28;20049;-64
2021/03/28 11:17:53;;;;;;;26.73;20.15;;;;;;;20.13;42.28;102760.19;5010813;28;20046;-64
2021/03/28 11:20:26;;;;;;;25.23;19.83;;;;;;;20.59;41.08;102759.78;5011181;28;20046;-60
2021/03/28 11:23:17;;;;;;;24.70;19.67;;;;;;;21.00;40.30;102750.81;5010139;28;20597;-63
2021/03/28 11:25:56;;;;;;;29.23;21.75;;;;;;;21.38;39.71;102749.06;5009704;28;20081;-63
2021/03/28 11:28:50;;;;;;;30.08;23.08;;;;;;;21.63;39.17;102761.56;5000016;28;20419;-68
2021/03/28 11:31:36;;;;;;;27.40;22.35;;;;;;;21.83;38.66;102749.44;5010808;28;20041;-68
2021/03/28 11:34:17;;;;;;;32.90;21.90;;;;;;;21.91;38.80;102748.88;5010876;28;20093;-78
2021/03/28 11:36:58;;;;;;;26.35;21.20;;;;;;;21.53;39.11;102749.81;4997028;28;20542;-64
2021/03/28 11:39:54;;;;;;;24.88;20.38;;;;;;;21.10;39.54;102742.16;5010359;28;20050;-63
2021/03/28 11:42:28;;;;;;;27.77;19.90;;;;;;;20.71;40.21;102744.81;4999908;28;20442;-65
2021/03/28 11:45:00;;;;;;;24.17;19.13;;;;;;;20.47;40.90;102752.63;5010017;28;20046;-63
2021/03/28 11:47:51;;;;;;;25.13;20.98;;;;;;;20.50;40.78;102753.25;5009659;28;20541;-64
2021/03/28 11:50:17;;;;;;;31.20;22.08;;;;;;;20.50;40.15;102752.41;5010377;28;20112;-64
2021/03/28 11:53:01;;;;;;;31.52;21.98;;;;;;;20.35;41.17;102752.50;5009929;28;20050;-66
2021/03/28 11:55:38;;;;;;;29.55;21.88;;;;;;;20.42;40.97;102747.59;5009306;28;20054;-64
2021/03/28 11:58:23;;;;;;;28.33;21.50;;;;;;;20.82;40.66;102736.94;5009914;28;20049;-68
2021/03/28 12:00:54;;;;;;;28.65;19.80;;;;;;;21.16;40.00;102731.91;5006850;28;20042;-63
2021/03/28 12:03:20;;;;;;;23.88;19.17;;;;;;;21.07;40.20;102739.72;5008536;28;20054;-63
2021/03/28 12:05:52;;;;;;;22.00;17.17;;;;;;;21.37;38.96;102728.69;5008576;28;20041;-63
2021/03/28 12:08:19;;;;;;;21.45;16.65;;;;;;;21.43;38.42;102735.41;5008979;28;20042;-64
2021/03/28 12:10:47;;;;;;;22.55;16.38;;;;;;;21.17;38.78;102730.94;5009262;28;20049;-64
2021/03/28 12:13:42;;;;;;;23.13;16.98;;;;;;;20.91;39.29;102735.41;5009272;28;20077;-62
2021/03/28 12:16:09;;;;;;;23.80;18.05;;;;;;;21.23;38.68;102729.69;5007908;28;20124;-65
2021/03/28 12:18:42;;;;;;;21.80;16.50;;;;;;;21.30;38.64;102722.91;5009348;28;20042;-65
2021/03/28 12:21:08;;;;;;;21.38;16.50;;;;;;;21.24;39.10;102720.69;4996585;28;20080;-64
2021/03/28 12:23:44;;;;;;;22.10;16.73;;;;;;;21.46;38.86;102727.19;5007632;28;20525;-63
2021/03/28 12:26:22;;;;;;;17.20;15.27;;;;;;;21.80;38.14;102716.72;5009352;28;20081;-64
2021/03/28 12:28:50;;;;;;;17.30;14.13;;;;;;;21.53;38.41;102715.06;5007514;28;20046;-63
2021/03/28 12:31:40;;;;;;;17.27;14.52;;;;;;;21.21;39.03;102715.56;5010068;28;20057;-63
2021/03/28 12:34:31;;;;;;;20.65;14.50;;;;;;;20.93;39.33;102720.16;5008463;28;20107;-63
2021/03/28 12:37:14;;;;;;;19.23;14.82;;;;;;;20.74;39.48;102715.25;5008086;28;20479;-66
2021/03/28 12:39:40;;;;;;;19.65;14.60;;;;;;;20.58;39.62;102717.22;5008163;28;20112;-65